sensor_id;sensor_type;location;lat;lon;timestamp;P1;durP1;ratioP1;P2;durP2;ratioP2
81807;SDS011;71241;13.676;100.700;2023-11-21T00:01:35;23.85;;;12.50;;
81807;SDS011;71241;13.676;100.700;2023-11-21T00:04:06;22.98;;;11.40;;
81807;SDS011;71241;13.676;100.700;2023-11-21T00:06:37;19.17;;;11.63;;
81807;SDS011;71241;13.676;100.700;2023-11-21T00:09:14;21.33;;;12.00;;
81807;SDS011;71241;13.676;100.700;2023-11-21T00:11:46;22.80;;;12.48;;
81807;SDS011;71241;13.676;100.700;2023-11-21T00:14:17;26.88;;;12.60;;
81807;SDS011;71241;13.676;100.700;2023-11-21T00:16:48;23.58;;;12.27;;
81807;SDS011;71241;13.676;100.700;2023-11-21T00:19:21;19.23;;;12.48;;
81807;SDS011;71241;13.676;100.700;2023-11-21T00:21:52;21.80;;;12.38;;
81807;SDS011;71241;13.676;100.700;2023-11-21T00:24:25;23.50;;;13.10;;
81807;SDS011;71241;13.676;100.700;2023-11-21T00:26:58;18.13;;;10.98;;
81807;SDS011;71241;13.676;100.700;2023-11-21T00:29:31;19.05;;;12.48;;
81807;SDS011;71241;13.676;100.700;2023-11-21T00:32:02;24.17;;;12.15;;
81807;SDS011;71241;13.676;100.700;2023-11-21T00:34:34;19.60;;;13.43;;
81807;SDS011;71241;13.676;100.700;2023-11-21T00:37:05;22.05;;;14.10;;
81807;SDS011;71241;13.676;100.700;2023-11-21T00:39:38;18.42;;;12.75;;
81807;SDS011;71241;13.676;100.700;2023-11-21T00:42:09;19.88;;;12.15;;
81807;SDS011;71241;13.676;100.700;2023-11-21T00:44:40;21.42;;;13.85;;
81807;SDS011;71241;13.676;100.700;2023-11-21T00:47:11;19.65;;;11.40;;
81807;SDS011;71241;13.676;100.700;2023-11-21T00:49:41;19.88;;;11.68;;
81807;SDS011;71241;13.676;100.700;2023-11-21T00:52:12;21.08;;;13.20;;
81807;SDS011;71241;13.676;100.700;2023-11-21T00:54:45;26.52;;;13.70;;
81807;SDS011;71241;13.676;100.700;2023-11-21T00:57:17;23.45;;;14.02;;
81807;SDS011;71241;13.676;100.700;2023-11-21T00:59:48;22.88;;;15.27;;
81807;SDS011;71241;13.676;100.700;2023-11-21T01:02:18;19.80;;;12.88;;
81807;SDS011;71241;13.676;100.700;2023-11-21T01:04:49;20.83;;;11.65;;
81807;SDS011;71241;13.676;100.700;2023-11-21T01:07:20;17.35;;;11.88;;
81807;SDS011;71241;13.676;100.700;2023-11-21T01:09:57;18.98;;;11.98;;
81807;SDS011;71241;13.676;100.700;2023-11-21T01:12:31;21.25;;;12.55;;
81807;SDS011;71241;13.676;100.700;2023-11-21T01:15:02;19.67;;;13.93;;
81807;SDS011;71241;13.676;100.700;2023-11-21T01:17:36;22.17;;;11.80;;
81807;SDS011;71241;13.676;100.700;2023-11-21T01:20:07;18.45;;;10.68;;
81807;SDS011;71241;13.676;100.700;2023-11-21T01:22:42;22.63;;;12.15;;
81807;SDS011;71241;13.676;100.700;2023-11-21T01:25:15;18.25;;;10.95;;
81807;SDS011;71241;13.676;100.700;2023-11-21T01:30:16;21.30;;;12.20;;
81807;SDS011;71241;13.676;100.700;2023-11-21T01:32:47;20.33;;;12.90;;
81807;SDS011;71241;13.676;100.700;2023-11-21T01:35:19;19.92;;;12.05;;
81807;SDS011;71241;13.676;100.700;2023-11-21T01:37:51;18.35;;;12.25;;
81807;SDS011;71241;13.676;100.700;2023-11-21T01:40:24;17.85;;;10.75;;
81807;SDS011;71241;13.676;100.700;2023-11-21T01:42:55;19.73;;;10.27;;
81807;SDS011;71241;13.676;100.700;2023-11-21T01:45:26;20.08;;;11.43;;
81807;SDS011;71241;13.676;100.700;2023-11-21T01:47:58;14.52;;;10.55;;
81807;SDS011;71241;13.676;100.700;2023-11-21T01:50:30;20.50;;;17.95;;
81807;SDS011;71241;13.676;100.700;2023-11-21T01:53:01;20.08;;;10.63;;
81807;SDS011;71241;13.676;100.700;2023-11-21T01:55:34;16.35;;;10.30;;
81807;SDS011;71241;13.676;100.700;2023-11-21T01:58:04;22.73;;;11.32;;
81807;SDS011;71241;13.676;100.700;2023-11-21T02:00:36;16.13;;;10.30;;
81807;SDS011;71241;13.676;100.700;2023-11-21T02:03:07;17.75;;;10.70;;
81807;SDS011;71241;13.676;100.700;2023-11-21T02:05:39;15.75;;;9.65;;
81807;SDS011;71241;13.676;100.700;2023-11-21T02:08:10;15.40;;;10.55;;
81807;SDS011;71241;13.676;100.700;2023-11-21T02:10:44;15.25;;;10.25;;
81807;SDS011;71241;13.676;100.700;2023-11-21T02:13:15;19.55;;;10.68;;
81807;SDS011;71241;13.676;100.700;2023-11-21T02:15:46;19.42;;;10.30;;
81807;SDS011;71241;13.676;100.700;2023-11-21T02:18:19;13.50;;;8.85;;
81807;SDS011;71241;13.676;100.700;2023-11-21T02:20:51;19.17;;;9.63;;
81807;SDS011;71241;13.676;100.700;2023-11-21T02:23:23;16.25;;;10.75;;
81807;SDS011;71241;13.676;100.700;2023-11-21T02:25:58;19.48;;;10.93;;
81807;SDS011;71241;13.676;100.700;2023-11-21T02:28:33;14.38;;;9.60;;
81807;SDS011;71241;13.676;100.700;2023-11-21T02:31:04;18.88;;;11.25;;
81807;SDS011;71241;13.676;100.700;2023-11-21T02:33:36;15.40;;;9.30;;
81807;SDS011;71241;13.676;100.700;2023-11-21T02:36:08;17.10;;;10.05;;
81807;SDS011;71241;13.676;100.700;2023-11-21T02:38:41;18.35;;;11.55;;
81807;SDS011;71241;13.676;100.700;2023-11-21T02:41:12;19.27;;;11.07;;
81807;SDS011;71241;13.676;100.700;2023-11-21T02:43:44;16.70;;;10.35;;
81807;SDS011;71241;13.676;100.700;2023-11-21T02:46:15;19.30;;;9.40;;
81807;SDS011;71241;13.676;100.700;2023-11-21T02:48:46;18.35;;;10.85;;
81807;SDS011;71241;13.676;100.700;2023-11-21T02:51:17;14.15;;;8.80;;
81807;SDS011;71241;13.676;100.700;2023-11-21T02:53:50;12.95;;;7.95;;
81807;SDS011;71241;13.676;100.700;2023-11-21T02:58:50;18.95;;;11.60;;
81807;SDS011;71241;13.676;100.700;2023-11-21T03:01:24;14.43;;;10.75;;
81807;SDS011;71241;13.676;100.700;2023-11-21T03:03:55;20.27;;;12.95;;
81807;SDS011;71241;13.676;100.700;2023-11-21T03:06:26;17.85;;;11.85;;
81807;SDS011;71241;13.676;100.700;2023-11-21T03:08:59;12.40;;;9.32;;
81807;SDS011;71241;13.676;100.700;2023-11-21T03:11:30;17.00;;;12.35;;
81807;SDS011;71241;13.676;100.700;2023-11-21T03:14:01;19.08;;;11.82;;
81807;SDS011;71241;13.676;100.700;2023-11-21T03:16:32;20.63;;;12.23;;
81807;SDS011;71241;13.676;100.700;2023-11-21T03:19:07;19.60;;;11.85;;
81807;SDS011;71241;13.676;100.700;2023-11-21T03:21:38;20.40;;;11.25;;
81807;SDS011;71241;13.676;100.700;2023-11-21T03:24:11;15.27;;;11.05;;
81807;SDS011;71241;13.676;100.700;2023-11-21T03:26:42;16.45;;;9.15;;
81807;SDS011;71241;13.676;100.700;2023-11-21T03:29:15;15.95;;;9.43;;
81807;SDS011;71241;13.676;100.700;2023-11-21T03:31:49;16.20;;;10.02;;
81807;SDS011;71241;13.676;100.700;2023-11-21T03:34:23;16.65;;;11.85;;
81807;SDS011;71241;13.676;100.700;2023-11-21T03:36:56;19.33;;;16.33;;
81807;SDS011;71241;13.676;100.700;2023-11-21T03:39:29;25.58;;;16.52;;
81807;SDS011;71241;13.676;100.700;2023-11-21T03:42:00;21.63;;;11.13;;
81807;SDS011;71241;13.676;100.700;2023-11-21T03:44:31;16.27;;;10.77;;
81807;SDS011;71241;13.676;100.700;2023-11-21T03:47:02;23.33;;;13.10;;
81807;SDS011;71241;13.676;100.700;2023-11-21T03:49:33;19.67;;;13.02;;
81807;SDS011;71241;13.676;100.700;2023-11-21T03:52:04;22.52;;;12.07;;
81807;SDS011;71241;13.676;100.700;2023-11-21T03:54:38;22.48;;;12.80;;
81807;SDS011;71241;13.676;100.700;2023-11-21T03:57:09;18.65;;;10.80;;
81807;SDS011;71241;13.676;100.700;2023-11-21T03:59:40;18.98;;;12.10;;
81807;SDS011;71241;13.676;100.700;2023-11-21T04:02:11;19.13;;;14.30;;
81807;SDS011;71241;13.676;100.700;2023-11-21T04:04:42;18.58;;;14.07;;
81807;SDS011;71241;13.676;100.700;2023-11-21T04:07:13;19.77;;;11.85;;
81807;SDS011;71241;13.676;100.700;2023-11-21T04:09:46;19.05;;;11.00;;
81807;SDS011;71241;13.676;100.700;2023-11-21T04:12:25;14.80;;;10.30;;
81807;SDS011;71241;13.676;100.700;2023-11-21T04:14:56;14.65;;;10.15;;
81807;SDS011;71241;13.676;100.700;2023-11-21T04:17:27;16.10;;;9.82;;
81807;SDS011;71241;13.676;100.700;2023-11-21T04:19:58;15.52;;;9.63;;
81807;SDS011;71241;13.676;100.700;2023-11-21T04:22:29;15.02;;;9.45;;
81807;SDS011;71241;13.676;100.700;2023-11-21T04:25:02;15.98;;;11.02;;
81807;SDS011;71241;13.676;100.700;2023-11-21T04:27:33;13.10;;;8.68;;
81807;SDS011;71241;13.676;100.700;2023-11-21T04:30:04;14.43;;;8.90;;
81807;SDS011;71241;13.676;100.700;2023-11-21T04:32:36;13.40;;;8.80;;
81807;SDS011;71241;13.676;100.700;2023-11-21T04:35:07;13.38;;;8.77;;
81807;SDS011;71241;13.676;100.700;2023-11-21T04:37:38;10.35;;;8.65;;
81807;SDS011;71241;13.676;100.700;2023-11-21T04:40:11;14.38;;;9.30;;
81807;SDS011;71241;13.676;100.700;2023-11-21T04:42:43;13.60;;;8.90;;
81807;SDS011;71241;13.676;100.700;2023-11-21T04:45:13;13.65;;;8.20;;
81807;SDS011;71241;13.676;100.700;2023-11-21T04:47:45;10.45;;;7.40;;
81807;SDS011;71241;13.676;100.700;2023-11-21T04:50:15;10.77;;;8.18;;
81807;SDS011;71241;13.676;100.700;2023-11-21T04:52:46;14.90;;;11.05;;
81807;SDS011;71241;13.676;100.700;2023-11-21T04:55:19;13.00;;;7.72;;
81807;SDS011;71241;13.676;100.700;2023-11-21T04:57:50;12.27;;;8.40;;
81807;SDS011;71241;13.676;100.700;2023-11-21T05:00:21;12.30;;;9.07;;
81807;SDS011;71241;13.676;100.700;2023-11-21T05:02:52;11.15;;;7.25;;
81807;SDS011;71241;13.676;100.700;2023-11-21T05:05:23;16.85;;;8.02;;
81807;SDS011;71241;13.676;100.700;2023-11-21T05:07:54;16.40;;;9.40;;
81807;SDS011;71241;13.676;100.700;2023-11-21T05:10:27;10.20;;;6.95;;
81807;SDS011;71241;13.676;100.700;2023-11-21T05:12:59;8.80;;;6.35;;
81807;SDS011;71241;13.676;100.700;2023-11-21T05:15:32;11.57;;;6.40;;
81807;SDS011;71241;13.676;100.700;2023-11-21T05:18:03;12.77;;;8.00;;
81807;SDS011;71241;13.676;100.700;2023-11-21T05:20:35;15.63;;;8.30;;
81807;SDS011;71241;13.676;100.700;2023-11-21T05:23:08;10.07;;;7.63;;
81807;SDS011;71241;13.676;100.700;2023-11-21T05:25:41;10.45;;;7.07;;
81807;SDS011;71241;13.676;100.700;2023-11-21T05:28:12;9.25;;;6.80;;
81807;SDS011;71241;13.676;100.700;2023-11-21T05:30:43;12.18;;;6.63;;
81807;SDS011;71241;13.676;100.700;2023-11-21T05:33:14;14.05;;;8.35;;
81807;SDS011;71241;13.676;100.700;2023-11-21T05:35:45;9.27;;;7.07;;
81807;SDS011;71241;13.676;100.700;2023-11-21T05:38:17;12.18;;;8.07;;
81807;SDS011;71241;13.676;100.700;2023-11-21T05:40:52;10.90;;;7.63;;
81807;SDS011;71241;13.676;100.700;2023-11-21T05:43:23;10.73;;;7.38;;
81807;SDS011;71241;13.676;100.700;2023-11-21T05:45:57;12.90;;;7.63;;
81807;SDS011;71241;13.676;100.700;2023-11-21T05:48:27;10.82;;;8.80;;
81807;SDS011;71241;13.676;100.700;2023-11-21T05:50:59;11.65;;;7.10;;
81807;SDS011;71241;13.676;100.700;2023-11-21T05:53:30;9.65;;;7.07;;
81807;SDS011;71241;13.676;100.700;2023-11-21T05:56:03;7.68;;;6.72;;
81807;SDS011;71241;13.676;100.700;2023-11-21T05:58:34;10.50;;;6.65;;
81807;SDS011;71241;13.676;100.700;2023-11-21T06:01:06;13.13;;;7.78;;
81807;SDS011;71241;13.676;100.700;2023-11-21T06:03:42;12.02;;;9.30;;
81807;SDS011;71241;13.676;100.700;2023-11-21T06:06:13;13.13;;;6.95;;
81807;SDS011;71241;13.676;100.700;2023-11-21T06:08:44;10.05;;;7.25;;
81807;SDS011;71241;13.676;100.700;2023-11-21T06:11:17;7.88;;;7.07;;
81807;SDS011;71241;13.676;100.700;2023-11-21T06:13:48;10.65;;;7.40;;
81807;SDS011;71241;13.676;100.700;2023-11-21T06:16:19;12.13;;;7.68;;
81807;SDS011;71241;13.676;100.700;2023-11-21T06:18:50;8.70;;;6.80;;
81807;SDS011;71241;13.676;100.700;2023-11-21T06:21:21;10.07;;;7.03;;
81807;SDS011;71241;13.676;100.700;2023-11-21T06:23:51;11.23;;;7.68;;
81807;SDS011;71241;13.676;100.700;2023-11-21T06:26:24;11.45;;;8.48;;
81807;SDS011;71241;13.676;100.700;2023-11-21T06:28:55;11.27;;;7.45;;
81807;SDS011;71241;13.676;100.700;2023-11-21T06:31:26;10.85;;;7.65;;
81807;SDS011;71241;13.676;100.700;2023-11-21T06:33:56;10.70;;;7.18;;
81807;SDS011;71241;13.676;100.700;2023-11-21T06:36:28;15.65;;;7.25;;
81807;SDS011;71241;13.676;100.700;2023-11-21T06:39:00;14.15;;;8.02;;
81807;SDS011;71241;13.676;100.700;2023-11-21T06:41:32;12.38;;;8.98;;
81807;SDS011;71241;13.676;100.700;2023-11-21T06:44:03;10.38;;;9.27;;
81807;SDS011;71241;13.676;100.700;2023-11-21T06:46:34;12.82;;;8.68;;
81807;SDS011;71241;13.676;100.700;2023-11-21T06:49:05;9.32;;;7.65;;
81807;SDS011;71241;13.676;100.700;2023-11-21T06:51:35;10.13;;;7.45;;
81807;SDS011;71241;13.676;100.700;2023-11-21T06:54:09;13.23;;;8.95;;
81807;SDS011;71241;13.676;100.700;2023-11-21T06:56:42;10.30;;;8.63;;
81807;SDS011;71241;13.676;100.700;2023-11-21T06:59:13;11.27;;;7.57;;
81807;SDS011;71241;13.676;100.700;2023-11-21T07:01:43;12.38;;;8.50;;
81807;SDS011;71241;13.676;100.700;2023-11-21T07:04:14;11.73;;;9.27;;
81807;SDS011;71241;13.676;100.700;2023-11-21T07:06:45;10.98;;;7.82;;
81807;SDS011;71241;13.676;100.700;2023-11-21T07:09:17;12.32;;;9.70;;
81807;SDS011;71241;13.676;100.700;2023-11-21T07:11:52;10.00;;;8.40;;
81807;SDS011;71241;13.676;100.700;2023-11-21T07:14:24;15.77;;;9.85;;
81807;SDS011;71241;13.676;100.700;2023-11-21T07:16:55;14.52;;;9.25;;
81807;SDS011;71241;13.676;100.700;2023-11-21T07:19:26;12.68;;;8.40;;
81807;SDS011;71241;13.676;100.700;2023-11-21T07:21:59;12.82;;;7.63;;
81807;SDS011;71241;13.676;100.700;2023-11-21T07:24:30;9.68;;;7.45;;
81807;SDS011;71241;13.676;100.700;2023-11-21T07:27:03;12.88;;;8.45;;
81807;SDS011;71241;13.676;100.700;2023-11-21T07:29:33;8.30;;;7.47;;
81807;SDS011;71241;13.676;100.700;2023-11-21T07:32:04;9.07;;;8.00;;
81807;SDS011;71241;13.676;100.700;2023-11-21T07:34:35;12.25;;;8.90;;
81807;SDS011;71241;13.676;100.700;2023-11-21T07:37:06;12.82;;;8.00;;
81807;SDS011;71241;13.676;100.700;2023-11-21T07:39:37;10.90;;;7.65;;
81807;SDS011;71241;13.676;100.700;2023-11-21T07:42:17;13.95;;;8.05;;
81807;SDS011;71241;13.676;100.700;2023-11-21T07:44:48;10.13;;;7.78;;
81807;SDS011;71241;13.676;100.700;2023-11-21T07:47:19;13.25;;;8.50;;
81807;SDS011;71241;13.676;100.700;2023-11-21T07:49:50;13.75;;;8.05;;
81807;SDS011;71241;13.676;100.700;2023-11-21T07:52:21;10.63;;;7.38;;
81807;SDS011;71241;13.676;100.700;2023-11-21T07:54:52;13.80;;;8.35;;
81807;SDS011;71241;13.676;100.700;2023-11-21T07:57:24;12.18;;;7.55;;
81807;SDS011;71241;13.676;100.700;2023-11-21T07:59:55;13.18;;;8.23;;
81807;SDS011;71241;13.676;100.700;2023-11-21T08:02:26;11.88;;;7.50;;
81807;SDS011;71241;13.676;100.700;2023-11-21T08:05:00;9.55;;;7.85;;
81807;SDS011;71241;13.676;100.700;2023-11-21T08:07:31;11.88;;;8.13;;
81807;SDS011;71241;13.676;100.700;2023-11-21T08:10:02;11.38;;;8.48;;
81807;SDS011;71241;13.676;100.700;2023-11-21T08:12:36;13.35;;;8.75;;
81807;SDS011;71241;13.676;100.700;2023-11-21T08:15:10;11.63;;;8.57;;
81807;SDS011;71241;13.676;100.700;2023-11-21T08:17:42;11.23;;;8.00;;
81807;SDS011;71241;13.676;100.700;2023-11-21T08:20:12;11.50;;;8.20;;
81807;SDS011;71241;13.676;100.700;2023-11-21T08:22:47;11.88;;;7.85;;
81807;SDS011;71241;13.676;100.700;2023-11-21T08:25:18;12.70;;;7.68;;
81807;SDS011;71241;13.676;100.700;2023-11-21T08:27:51;12.95;;;7.47;;
81807;SDS011;71241;13.676;100.700;2023-11-21T08:30:23;11.90;;;7.60;;
81807;SDS011;71241;13.676;100.700;2023-11-21T08:32:54;11.63;;;6.80;;
81807;SDS011;71241;13.676;100.700;2023-11-21T08:35:27;8.32;;;6.60;;
81807;SDS011;71241;13.676;100.700;2023-11-21T08:37:58;11.55;;;7.63;;
81807;SDS011;71241;13.676;100.700;2023-11-21T08:40:29;13.95;;;8.02;;
81807;SDS011;71241;13.676;100.700;2023-11-21T08:43:02;10.00;;;7.53;;
81807;SDS011;71241;13.676;100.700;2023-11-21T08:45:33;14.50;;;9.38;;
81807;SDS011;71241;13.676;100.700;2023-11-21T08:48:04;10.00;;;7.68;;
81807;SDS011;71241;13.676;100.700;2023-11-21T08:50:35;9.38;;;7.40;;
81807;SDS011;71241;13.676;100.700;2023-11-21T08:53:06;12.43;;;7.63;;
81807;SDS011;71241;13.676;100.700;2023-11-21T08:55:37;7.38;;;6.45;;
81807;SDS011;71241;13.676;100.700;2023-11-21T08:58:09;12.75;;;6.90;;
81807;SDS011;71241;13.676;100.700;2023-11-21T09:00:41;14.40;;;7.65;;
81807;SDS011;71241;13.676;100.700;2023-11-21T09:03:13;10.98;;;7.28;;
81807;SDS011;71241;13.676;100.700;2023-11-21T09:05:44;12.45;;;7.57;;
81807;SDS011;71241;13.676;100.700;2023-11-21T09:08:18;9.95;;;7.63;;
81807;SDS011;71241;13.676;100.700;2023-11-21T09:10:49;13.57;;;8.32;;
81807;SDS011;71241;13.676;100.700;2023-11-21T09:13:22;10.65;;;7.35;;
81807;SDS011;71241;13.676;100.700;2023-11-21T09:15:54;11.95;;;7.63;;
81807;SDS011;71241;13.676;100.700;2023-11-21T09:18:25;15.77;;;8.02;;
81807;SDS011;71241;13.676;100.700;2023-11-21T09:21:06;9.25;;;7.75;;
81807;SDS011;71241;13.676;100.700;2023-11-21T09:23:37;11.50;;;8.15;;
81807;SDS011;71241;13.676;100.700;2023-11-21T09:26:08;11.82;;;7.30;;
81807;SDS011;71241;13.676;100.700;2023-11-21T09:28:41;11.90;;;6.85;;
81807;SDS011;71241;13.676;100.700;2023-11-21T09:31:15;15.20;;;7.68;;
81807;SDS011;71241;13.676;100.700;2023-11-21T09:33:46;9.98;;;6.88;;
81807;SDS011;71241;13.676;100.700;2023-11-21T09:36:17;11.60;;;8.00;;
81807;SDS011;71241;13.676;100.700;2023-11-21T09:38:48;14.43;;;7.75;;
81807;SDS011;71241;13.676;100.700;2023-11-21T09:41:19;11.43;;;8.98;;
81807;SDS011;71241;13.676;100.700;2023-11-21T09:43:55;11.57;;;7.45;;
81807;SDS011;71241;13.676;100.700;2023-11-21T09:46:29;11.77;;;7.68;;
81807;SDS011;71241;13.676;100.700;2023-11-21T09:49:00;13.38;;;7.43;;
81807;SDS011;71241;13.676;100.700;2023-11-21T09:51:35;10.93;;;7.70;;
81807;SDS011;71241;13.676;100.700;2023-11-21T09:54:07;10.82;;;7.05;;
81807;SDS011;71241;13.676;100.700;2023-11-21T09:56:40;10.73;;;6.97;;
81807;SDS011;71241;13.676;100.700;2023-11-21T09:59:14;14.77;;;7.32;;
81807;SDS011;71241;13.676;100.700;2023-11-21T10:01:45;12.77;;;7.57;;
81807;SDS011;71241;13.676;100.700;2023-11-21T10:04:16;12.55;;;6.97;;
81807;SDS011;71241;13.676;100.700;2023-11-21T10:06:49;11.55;;;6.72;;
81807;SDS011;71241;13.676;100.700;2023-11-21T10:09:21;10.23;;;7.03;;
81807;SDS011;71241;13.676;100.700;2023-11-21T10:12:01;9.77;;;6.80;;
81807;SDS011;71241;13.676;100.700;2023-11-21T10:14:35;10.52;;;6.70;;
81807;SDS011;71241;13.676;100.700;2023-11-21T10:17:06;10.13;;;6.90;;
81807;SDS011;71241;13.676;100.700;2023-11-21T10:19:38;13.68;;;7.13;;
81807;SDS011;71241;13.676;100.700;2023-11-21T10:22:09;11.80;;;6.97;;
81807;SDS011;71241;13.676;100.700;2023-11-21T10:24:40;12.05;;;10.60;;
81807;SDS011;71241;13.676;100.700;2023-11-21T10:27:20;11.07;;;9.00;;
81807;SDS011;71241;13.676;100.700;2023-11-21T10:29:53;11.20;;;10.18;;
81807;SDS011;71241;13.676;100.700;2023-11-21T10:32:27;15.00;;;10.80;;
81807;SDS011;71241;13.676;100.700;2023-11-21T10:35:01;11.18;;;9.52;;
81807;SDS011;71241;13.676;100.700;2023-11-21T10:37:39;12.07;;;9.18;;
81807;SDS011;71241;13.676;100.700;2023-11-21T10:40:10;17.17;;;10.13;;
81807;SDS011;71241;13.676;100.700;2023-11-21T10:42:43;13.45;;;11.07;;
81807;SDS011;71241;13.676;100.700;2023-11-21T10:45:15;10.98;;;9.32;;
81807;SDS011;71241;13.676;100.700;2023-11-21T10:50:16;10.35;;;7.85;;
81807;SDS011;71241;13.676;100.700;2023-11-21T10:52:49;10.85;;;7.47;;
81807;SDS011;71241;13.676;100.700;2023-11-21T10:55:21;13.02;;;7.65;;
81807;SDS011;71241;13.676;100.700;2023-11-21T10:57:54;11.25;;;10.05;;
81807;SDS011;71241;13.676;100.700;2023-11-21T11:00:30;14.13;;;9.20;;
81807;SDS011;71241;13.676;100.700;2023-11-21T11:03:02;11.07;;;8.85;;
81807;SDS011;71241;13.676;100.700;2023-11-21T11:05:33;14.18;;;9.73;;
81807;SDS011;71241;13.676;100.700;2023-11-21T11:08:05;10.73;;;9.07;;
81807;SDS011;71241;13.676;100.700;2023-11-21T11:10:39;20.33;;;14.38;;
81807;SDS011;71241;13.676;100.700;2023-11-21T11:13:11;15.82;;;13.77;;
81807;SDS011;71241;13.676;100.700;2023-11-21T11:15:48;11.60;;;8.38;;
81807;SDS011;71241;13.676;100.700;2023-11-21T11:18:21;12.18;;;7.63;;
81807;SDS011;71241;13.676;100.700;2023-11-21T11:20:52;12.07;;;8.65;;
81807;SDS011;71241;13.676;100.700;2023-11-21T11:23:30;12.65;;;8.55;;
81807;SDS011;71241;13.676;100.700;2023-11-21T11:26:09;11.65;;;7.82;;
81807;SDS011;71241;13.676;100.700;2023-11-21T11:28:47;13.93;;;7.10;;
81807;SDS011;71241;13.676;100.700;2023-11-21T11:31:27;13.07;;;7.50;;
81807;SDS011;71241;13.676;100.700;2023-11-21T11:34:05;18.15;;;7.25;;
81807;SDS011;71241;13.676;100.700;2023-11-21T11:36:44;20.17;;;8.90;;
81807;SDS011;71241;13.676;100.700;2023-11-21T11:39:27;14.07;;;8.95;;
81807;SDS011;71241;13.676;100.700;2023-11-21T11:42:02;20.38;;;11.75;;
81807;SDS011;71241;13.676;100.700;2023-11-21T11:47:23;15.93;;;11.50;;
81807;SDS011;71241;13.676;100.700;2023-11-21T11:49:58;14.32;;;9.40;;
81807;SDS011;71241;13.676;100.700;2023-11-21T11:52:45;13.85;;;8.27;;
81807;SDS011;71241;13.676;100.700;2023-11-21T11:55:17;13.73;;;7.82;;
81807;SDS011;71241;13.676;100.700;2023-11-21T11:57:48;16.05;;;8.98;;
81807;SDS011;71241;13.676;100.700;2023-11-21T12:00:33;14.73;;;9.93;;
81807;SDS011;71241;13.676;100.700;2023-11-21T12:05:40;16.27;;;8.55;;
81807;SDS011;71241;13.676;100.700;2023-11-21T12:08:14;12.30;;;7.82;;
81807;SDS011;71241;13.676;100.700;2023-11-21T12:10:50;17.27;;;8.80;;
81807;SDS011;71241;13.676;100.700;2023-11-21T12:13:26;14.18;;;9.30;;
81807;SDS011;71241;13.676;100.700;2023-11-21T12:16:00;16.67;;;9.45;;
81807;SDS011;71241;13.676;100.700;2023-11-21T12:18:32;13.13;;;7.13;;
81807;SDS011;71241;13.676;100.700;2023-11-21T12:23:34;15.48;;;8.18;;
81807;SDS011;71241;13.676;100.700;2023-11-21T12:26:05;11.43;;;8.38;;
81807;SDS011;71241;13.676;100.700;2023-11-21T12:28:37;11.35;;;7.53;;
81807;SDS011;71241;13.676;100.700;2023-11-21T12:31:08;14.18;;;9.77;;
81807;SDS011;71241;13.676;100.700;2023-11-21T12:33:50;14.60;;;8.70;;
81807;SDS011;71241;13.676;100.700;2023-11-21T12:36:22;17.67;;;8.82;;
81807;SDS011;71241;13.676;100.700;2023-11-21T12:38:54;19.50;;;9.18;;
81807;SDS011;71241;13.676;100.700;2023-11-21T12:41:25;15.70;;;9.13;;
81807;SDS011;71241;13.676;100.700;2023-11-21T12:43:56;14.43;;;9.75;;
81807;SDS011;71241;13.676;100.700;2023-11-21T12:46:28;13.70;;;9.00;;
81807;SDS011;71241;13.676;100.700;2023-11-21T12:49:03;15.50;;;9.40;;
81807;SDS011;71241;13.676;100.700;2023-11-21T12:51:34;17.17;;;9.50;;
81807;SDS011;71241;13.676;100.700;2023-11-21T12:54:06;16.02;;;9.48;;
81807;SDS011;71241;13.676;100.700;2023-11-21T12:56:39;19.67;;;9.98;;
81807;SDS011;71241;13.676;100.700;2023-11-21T12:59:13;17.98;;;13.00;;
81807;SDS011;71241;13.676;100.700;2023-11-21T13:01:45;14.27;;;10.60;;
81807;SDS011;71241;13.676;100.700;2023-11-21T13:04:22;14.82;;;10.90;;
81807;SDS011;71241;13.676;100.700;2023-11-21T13:07:03;16.98;;;9.65;;
81807;SDS011;71241;13.676;100.700;2023-11-21T13:09:43;17.52;;;10.77;;
81807;SDS011;71241;13.676;100.700;2023-11-21T13:12:16;19.15;;;14.90;;
81807;SDS011;71241;13.676;100.700;2023-11-21T13:14:48;15.18;;;9.02;;
81807;SDS011;71241;13.676;100.700;2023-11-21T13:17:18;18.00;;;11.57;;
81807;SDS011;71241;13.676;100.700;2023-11-21T13:19:55;13.95;;;11.02;;
81807;SDS011;71241;13.676;100.700;2023-11-21T13:22:27;16.50;;;9.77;;
81807;SDS011;71241;13.676;100.700;2023-11-21T13:24:59;11.68;;;9.63;;
81807;SDS011;71241;13.676;100.700;2023-11-21T13:27:38;12.80;;;10.10;;
81807;SDS011;71241;13.676;100.700;2023-11-21T13:30:10;17.60;;;9.63;;
81807;SDS011;71241;13.676;100.700;2023-11-21T13:32:44;18.15;;;10.15;;
81807;SDS011;71241;13.676;100.700;2023-11-21T13:35:17;14.52;;;10.07;;
81807;SDS011;71241;13.676;100.700;2023-11-21T13:38:03;18.55;;;10.35;;
81807;SDS011;71241;13.676;100.700;2023-11-21T13:40:36;18.35;;;10.15;;
81807;SDS011;71241;13.676;100.700;2023-11-21T13:43:15;17.60;;;10.27;;
81807;SDS011;71241;13.676;100.700;2023-11-21T13:45:50;16.70;;;10.27;;
81807;SDS011;71241;13.676;100.700;2023-11-21T13:48:32;19.45;;;11.13;;
81807;SDS011;71241;13.676;100.700;2023-11-21T13:51:13;18.63;;;11.40;;
81807;SDS011;71241;13.676;100.700;2023-11-21T13:53:47;17.30;;;10.80;;
81807;SDS011;71241;13.676;100.700;2023-11-21T13:56:21;17.38;;;12.77;;
81807;SDS011;71241;13.676;100.700;2023-11-21T13:58:53;20.42;;;12.50;;
81807;SDS011;71241;13.676;100.700;2023-11-21T14:01:26;20.33;;;11.52;;
81807;SDS011;71241;13.676;100.700;2023-11-21T14:04:16;23.23;;;12.25;;
81807;SDS011;71241;13.676;100.700;2023-11-21T14:06:56;16.73;;;13.57;;
81807;SDS011;71241;13.676;100.700;2023-11-21T14:09:30;16.38;;;12.05;;
81807;SDS011;71241;13.676;100.700;2023-11-21T14:12:13;19.27;;;12.77;;
81807;SDS011;71241;13.676;100.700;2023-11-21T14:17:16;19.92;;;12.23;;
81807;SDS011;71241;13.676;100.700;2023-11-21T14:19:47;21.55;;;12.73;;
81807;SDS011;71241;13.676;100.700;2023-11-21T14:22:21;19.73;;;14.20;;
81807;SDS011;71241;13.676;100.700;2023-11-21T14:24:55;20.83;;;12.70;;
81807;SDS011;71241;13.676;100.700;2023-11-21T14:27:31;17.48;;;13.07;;
81807;SDS011;71241;13.676;100.700;2023-11-21T14:30:03;23.58;;;14.00;;
81807;SDS011;71241;13.676;100.700;2023-11-21T14:32:35;20.75;;;13.57;;
81807;SDS011;71241;13.676;100.700;2023-11-21T14:35:07;23.23;;;14.25;;
81807;SDS011;71241;13.676;100.700;2023-11-21T14:37:40;19.67;;;12.77;;
81807;SDS011;71241;13.676;100.700;2023-11-21T14:40:13;25.67;;;13.20;;
81807;SDS011;71241;13.676;100.700;2023-11-21T14:42:45;21.08;;;13.70;;
81807;SDS011;71241;13.676;100.700;2023-11-21T14:45:18;23.73;;;13.55;;
81807;SDS011;71241;13.676;100.700;2023-11-21T14:50:34;20.80;;;11.25;;
81807;SDS011;71241;13.676;100.700;2023-11-21T14:53:29;19.23;;;11.95;;
81807;SDS011;71241;13.676;100.700;2023-11-21T14:56:11;19.20;;;14.70;;